Time;durP1;ratioP1;P1;durP2;ratioP2;P2;SDS_P1;SDS_P2;PMS_P1;PMS_P2;Temp;Humidity;BMP_temperature;BMP_pressure;BME280_temperature;BME280_humidity;BME280_pressure;Samples;Min_cycle;Max_cycle;Signal;HPM_P1;HPM_P2
2024/03/18 00:01:49;;;;;;;24.00;14.32;;;;;;;;;;5055497;28;20497;-74
2024/03/18 00:04:15;;;;;;;22.88;14.85;;;;;;;;;;5063590;28;20189;-74
2024/03/18 00:06:40;;;;;;;22.08;13.90;;;;;;;;;;5066748;28;20191;-75
2024/03/18 00:09:06;;;;;;;24.45;14.38;;;;;;;;;;5070122;28;20200;-74
2024/03/18 00:11:31;;;;;;;20.33;13.50;;;;;;;;;;5076819;28;20184;-73
2024/03/18 00:13:56;;;;;;;21.42;14.73;;;;;;;;;;5076766;28;20271;-73
2024/03/18 00:16:22;;;;;;;21.80;14.20;;;;;;;;;;5076876;28;20526;-73
2024/03/18 00:18:48;;;;;;;21.00;14.32;;;;;;;;;;5073122;28;20670;-73
2024/03/18 00:21:14;;;;;;;25.77;14.68;;;;;;;;;;5068278;28;20197;-73
2024/03/18 00:23:39;;;;;;;21.08;14.57;;;;;;;;;;5060093;28;20185;-74
2024/03/18 00:26:05;;;;;;;24.73;14.68;;;;;;;;;;5064770;28;20185;-73
2024/03/18 00:28:31;;;;;;;21.27;14.38;;;;;;;;;;5061965;28;20231;-73
2024/03/18 00:30:57;;;;;;;23.85;15.13;;;;;;;;;;5068105;28;20814;-74
2024/03/18 00:33:23;;;;;;;20.42;13.82;;;;;;;;;;5073497;28;20268;-73
2024/03/18 00:35:55;;;;;;;26.58;14.70;;;;;;;;;;5067867;28;20252;-74
2024/03/18 00:38:21;;;;;;;20.30;14.02;;;;;;;;;;5070279;28;20196;-73
2024/03/18 00:40:46;;;;;;;20.33;14.57;;;;;;;;;;5058300;28;20185;-73
2024/03/18 00:43:12;;;;;;;20.83;15.18;;;;;;;;;;5055108;28;20220;-74
2024/03/18 00:45:37;;;;;;;22.17;13.98;;;;;;;;;;5062368;28;20587;-75
2024/03/18 00:48:04;;;;;;;23.02;14.82;;;;;;;;;;5073278;28;20177;-75
2024/03/18 00:50:29;;;;;;;23.33;15.00;;;;;;;;;;5068619;28;20428;-75
2024/03/18 00:52:55;;;;;;;24.65;15.98;;;;;;;;;;5065166;28;20772;-74
2024/03/18 00:55:20;;;;;;;21.85;15.55;;;;;;;;;;5063358;28;20233;-76
2024/03/18 00:57:46;;;;;;;26.13;15.88;;;;;;;;;;5078607;28;20177;-75
2024/03/18 01:00:12;;;;;;;25.63;15.90;;;;;;;;;;5068185;28;20185;-76
2024/03/18 01:02:39;;;;;;;27.13;15.95;;;;;;;;;;5054805;28;20497;-75
2024/03/18 01:05:06;;;;;;;25.65;15.45;;;;;;;;;;5074870;28;20189;-74
2024/03/18 01:07:32;;;;;;;22.38;15.85;;;;;;;;;;5056213;28;20193;-74
2024/03/18 01:09:57;;;;;;;23.75;16.17;;;;;;;;;;5051490;28;20190;-74
2024/03/18 01:12:23;;;;;;;25.10;15.23;;;;;;;;;;5067618;28;20196;-74
2024/03/18 01:14:50;;;;;;;25.52;15.57;;;;;;;;;;5057642;28;20200;-74
2024/03/18 01:17:15;;;;;;;27.40;17.00;;;;;;;;;;5070958;28;20193;-74
2024/03/18 01:19:41;;;;;;;22.60;15.63;;;;;;;;;;5067679;28;20273;-74
2024/03/18 01:22:06;;;;;;;27.25;16.33;;;;;;;;;;5069178;28;20196;-74
2024/03/18 01:24:32;;;;;;;26.95;16.60;;;;;;;;;;5058800;28;20265;-74
2024/03/18 01:26:58;;;;;;;27.23;16.45;;;;;;;;;;5069198;28;20207;-74
2024/03/18 01:29:24;;;;;;;28.83;16.98;;;;;;;;;;5067560;28;20185;-74
2024/03/18 01:31:49;;;;;;;21.70;15.90;;;;;;;;;;5070327;28;20678;-74
2024/03/18 01:34:15;;;;;;;26.13;16.42;;;;;;;;;;5063286;28;20652;-74
2024/03/18 01:36:41;;;;;;;25.60;16.70;;;;;;;;;;5038911;28;20274;-74
2024/03/18 01:39:06;;;;;;;26.25;16.83;;;;;;;;;;5056016;28;20276;-75
2024/03/18 01:41:32;;;;;;;27.40;17.70;;;;;;;;;;5072884;28;20192;-75
2024/03/18 01:43:57;;;;;;;24.90;16.42;;;;;;;;;;5071062;28;20647;-75
2024/03/18 01:46:23;;;;;;;26.67;18.00;;;;;;;;;;5065950;28;20555;-75
2024/03/18 01:48:49;;;;;;;28.25;17.65;;;;;;;;;;5057898;28;20580;-76
2024/03/18 01:51:14;;;;;;;26.63;17.58;;;;;;;;;;5070587;28;20188;-75
2024/03/18 01:53:41;;;;;;;25.80;16.85;;;;;;;;;;5071594;28;20220;-74
2024/03/18 01:56:09;;;;;;;27.20;16.48;;;;;;;;;;5072299;28;20185;-75
2024/03/18 01:58:36;;;;;;;28.05;18.10;;;;;;;;;;5060341;28;20193;-74
2024/03/18 02:01:02;;;;;;;26.17;17.25;;;;;;;;;;5049302;28;20181;-74
2024/03/18 02:03:27;;;;;;;32.38;19.13;;;;;;;;;;5073068;28;20666;-74
2024/03/18 02:05:53;;;;;;;29.63;17.83;;;;;;;;;;5064595;28;20193;-74
2024/03/18 02:08:18;;;;;;;31.35;18.92;;;;;;;;;;5066481;28;20185;-74
2024/03/18 02:10:44;;;;;;;27.90;18.00;;;;;;;;;;5068296;28;20196;-74
2024/03/18 02:13:10;;;;;;;32.28;18.75;;;;;;;;;;5070675;28;20223;-74
2024/03/18 02:15:36;;;;;;;33.90;18.88;;;;;;;;;;5068980;28;20254;-76
2024/03/18 02:18:01;;;;;;;32.00;20.27;;;;;;;;;;5057956;28;20201;-73
2024/03/18 02:20:27;;;;;;;29.15;19.80;;;;;;;;;;5074127;28;20246;-73
2024/03/18 02:22:52;;;;;;;31.00;19.77;;;;;;;;;;5069477;28;20519;-74
2024/03/18 02:25:19;;;;;;;32.42;19.35;;;;;;;;;;5065741;28;20189;-74
2024/03/18 02:27:44;;;;;;;31.25;20.80;;;;;;;;;;5061457;28;20217;-73
2024/03/18 02:30:10;;;;;;;33.22;20.05;;;;;;;;;;5064539;28;20582;-73
2024/03/18 02:32:37;;;;;;;33.20;20.30;;;;;;;;;;5064348;28;20208;-73
2024/03/18 02:35:05;;;;;;;31.40;19.48;;;;;;;;;;5060826;28;20181;-73
2024/03/18 02:37:32;;;;;;;30.50;20.15;;;;;;;;;;5063783;28;20560;-73
2024/03/18 02:40:00;;;;;;;32.03;21.83;;;;;;;;;;5055249;28;20187;-73
2024/03/18 02:42:25;;;;;;;33.28;20.20;;;;;;;;;;5046453;28;20191;-74
2024/03/18 02:44:50;;;;;;;32.10;19.88;;;;;;;;;;5073707;28;20552;-74
2024/03/18 02:47:16;;;;;;;34.95;21.58;;;;;;;;;;5073371;28;20184;-74
2024/03/18 02:49:42;;;;;;;33.25;20.65;;;;;;;;;;5068469;28;20181;-74
2024/03/18 02:52:07;;;;;;;33.20;21.50;;;;;;;;;;5032788;28;20208;-74
2024/03/18 02:54:32;;;;;;;34.58;21.17;;;;;;;;;;5058706;28;20285;-74
2024/03/18 02:56:58;;;;;;;32.63;21.50;;;;;;;;;;5062086;28;20683;-74
2024/03/18 02:59:23;;;;;;;33.63;22.23;;;;;;;;;;5067952;28;20722;-74
2024/03/18 03:01:49;;;;;;;34.22;21.60;;;;;;;;;;5062680;28;20189;-74
2024/03/18 03:04:16;;;;;;;30.17;21.15;;;;;;;;;;5056492;28;20276;-74
2024/03/18 03:06:41;;;;;;;30.80;20.52;;;;;;;;;;5071411;28;20201;-74
2024/03/18 03:09:09;;;;;;;32.05;21.50;;;;;;;;;;5056395;28;20192;-74
2024/03/18 03:11:35;;;;;;;33.72;21.85;;;;;;;;;;5055184;28;20562;-73
2024/03/18 03:14:00;;;;;;;38.50;22.73;;;;;;;;;;5057389;28;20201;-73
2024/03/18 03:16:26;;;;;;;36.50;22.52;;;;;;;;;;5067282;28;20188;-73
2024/03/18 03:18:51;;;;;;;38.00;23.33;;;;;;;;;;5064931;28;20674;-74
2024/03/18 03:21:18;;;;;;;33.30;21.13;;;;;;;;;;5064778;28;20188;-75
2024/03/18 03:23:45;;;;;;;36.08;20.95;;;;;;;;;;5070446;28;20189;-74
2024/03/18 03:26:10;;;;;;;34.85;22.98;;;;;;;;;;5070940;28;20223;-74
2024/03/18 03:28:37;;;;;;;38.00;23.88;;;;;;;;;;5073968;28;20623;-74
2024/03/18 03:31:05;;;;;;;35.95;22.92;;;;;;;;;;5074010;28;20180;-74
2024/03/18 03:33:31;;;;;;;32.17;21.50;;;;;;;;;;5073220;28;20223;-74
2024/03/18 03:35:56;;;;;;;41.25;23.48;;;;;;;;;;5069264;28;20228;-74
2024/03/18 03:38:23;;;;;;;41.28;24.77;;;;;;;;;;5050274;28;20263;-74
2024/03/18 03:40:51;;;;;;;38.40;23.50;;;;;;;;;;5072277;28;20640;-74
2024/03/18 03:43:17;;;;;;;39.58;24.48;;;;;;;;;;5066094;28;20254;-75
2024/03/18 03:45:49;;;;;;;42.00;24.15;;;;;;;;;;5065501;28;20232;-74
2024/03/18 03:48:14;;;;;;;35.97;24.60;;;;;;;;;;5074218;28;20188;-74
2024/03/18 03:50:39;;;;;;;38.40;25.17;;;;;;;;;;5062341;28;20191;-74
2024/03/18 03:53:05;;;;;;;37.70;24.83;;;;;;;;;;5057264;28;20235;-73
2024/03/18 03:55:30;;;;;;;36.80;24.17;;;;;;;;;;5070116;28;20179;-73
2024/03/18 03:57:55;;;;;;;41.50;25.27;;;;;;;;;;5072144;28;20217;-74
2024/03/18 04:00:23;;;;;;;46.60;26.92;;;;;;;;;;5067220;28;20212;-75
2024/03/18 04:02:48;;;;;;;47.28;27.15;;;;;;;;;;5066197;28;20742;-74
2024/03/18 04:05:14;;;;;;;46.50;27.58;;;;;;;;;;5067114;28;20594;-74
2024/03/18 04:07:39;;;;;;;51.08;28.80;;;;;;;;;;5062706;28;20189;-74
2024/03/18 04:10:05;;;;;;;44.03;27.63;;;;;;;;;;5067332;28;20196;-74
2024/03/18 04:12:31;;;;;;;44.42;28.73;;;;;;;;;;5063995;28;20193;-74
2024/03/18 04:14:56;;;;;;;50.13;28.20;;;;;;;;;;5057923;28;20223;-74
2024/03/18 04:17:21;;;;;;;51.00;30.35;;;;;;;;;;5060183;28;20199;-75
2024/03/18 04:19:48;;;;;;;51.22;28.67;;;;;;;;;;5068131;28;20578;-74
2024/03/18 04:22:13;;;;;;;48.45;27.85;;;;;;;;;;5073161;28;20249;-74
2024/03/18 04:24:39;;;;;;;47.30;29.23;;;;;;;;;;5073898;28;20444;-74
2024/03/18 04:27:05;;;;;;;48.50;28.05;;;;;;;;;;5058389;28;20187;-74
2024/03/18 04:29:31;;;;;;;51.63;30.20;;;;;;;;;;5067860;28;20196;-74
2024/03/18 04:31:56;;;;;;;58.95;30.55;;;;;;;;;;5067869;28;20274;-74
2024/03/18 04:34:22;;;;;;;60.78;30.35;;;;;;;;;;5058212;28;20216;-74
2024/03/18 04:36:48;;;;;;;57.97;30.27;;;;;;;;;;5060240;28;20230;-74
2024/03/18 04:39:14;;;;;;;62.10;31.48;;;;;;;;;;5070996;28;20180;-74
2024/03/18 04:41:39;;;;;;;64.22;32.55;;;;;;;;;;5071690;28;20181;-73
2024/03/18 04:44:05;;;;;;;65.22;32.67;;;;;;;;;;5064432;28;20357;-76
2024/03/18 04:46:30;;;;;;;63.20;32.92;;;;;;;;;;5052685;28;20181;-74
2024/03/18 04:48:56;;;;;;;63.75;32.50;;;;;;;;;;5040636;28;20191;-74
2024/03/18 04:51:22;;;;;;;67.28;32.60;;;;;;;;;;5071618;28;20638;-74
2024/03/18 04:53:47;;;;;;;64.13;33.60;;;;;;;;;;5069619;28;20228;-74
2024/03/18 04:56:12;;;;;;;73.32;33.80;;;;;;;;;;5042416;28;20305;-74
2024/03/18 04:58:38;;;;;;;73.32;33.75;;;;;;;;;;5079156;28;20678;-74
2024/03/18 05:01:04;;;;;;;77.70;35.45;;;;;;;;;;5074988;28;20231;-74
2024/03/18 05:03:30;;;;;;;78.63;35.95;;;;;;;;;;5066503;28;20185;-74
2024/03/18 05:05:55;;;;;;;56.30;30.15;;;;;;;;;;5069191;28;20240;-73
2024/03/18 05:08:21;;;;;;;70.53;34.42;;;;;;;;;;5067736;28;20184;-74
2024/03/18 05:10:47;;;;;;;75.82;35.45;;;;;;;;;;5062413;28;20224;-74
2024/03/18 05:13:12;;;;;;;74.60;35.72;;;;;;;;;;5060953;28;20591;-74
2024/03/18 05:15:38;;;;;;;79.22;36.67;;;;;;;;;;5071359;28;20188;-74
2024/03/18 05:18:03;;;;;;;83.55;37.80;;;;;;;;;;5066166;28;20200;-74
2024/03/18 05:20:29;;;;;;;75.50;36.78;;;;;;;;;;5069753;28;20286;-74
2024/03/18 05:22:55;;;;;;;75.03;35.25;;;;;;;;;;5062909;28;20211;-74
2024/03/18 05:25:20;;;;;;;82.63;35.83;;;;;;;;;;5065430;28;20189;-73
2024/03/18 05:27:45;;;;;;;79.80;37.22;;;;;;;;;;5066397;28;20568;-73
2024/03/18 05:30:11;;;;;;;78.78;35.85;;;;;;;;;;5069575;28;20667;-73
2024/03/18 05:32:37;;;;;;;84.85;37.20;;;;;;;;;;5071062;28;20222;-73
2024/03/18 05:35:03;;;;;;;91.25;40.13;;;;;;;;;;5072747;28;20274;-74
2024/03/18 05:37:29;;;;;;;88.35;38.40;;;;;;;;;;5076678;28;20573;-74
2024/03/18 05:39:54;;;;;;;74.45;33.85;;;;;;;;;;5075256;28;20282;-74
2024/03/18 05:42:20;;;;;;;70.15;35.30;;;;;;;;;;5075299;28;20230;-73
2024/03/18 05:44:46;;;;;;;92.90;39.60;;;;;;;;;;5072335;28;20176;-72
2024/03/18 05:47:11;;;;;;;97.35;41.03;;;;;;;;;;5064610;28;20196;-72
2024/03/18 05:49:36;;;;;;;83.28;36.70;;;;;;;;;;5057692;28;20579;-73
2024/03/18 05:52:03;;;;;;;86.95;38.28;;;;;;;;;;5060002;28;20327;-73
2024/03/18 05:54:28;;;;;;;90.60;40.00;;;;;;;;;;5061928;28;20209;-74
2024/03/18 05:56:54;;;;;;;84.30;40.47;;;;;;;;;;5064088;28;20184;-73
2024/03/18 05:59:19;;;;;;;91.38;38.70;;;;;;;;;;5057223;28;20585;-73
2024/03/18 06:01:45;;;;;;;87.95;39.35;;;;;;;;;;5066802;28;20196;-74
2024/03/18 06:04:11;;;;;;;71.53;33.65;;;;;;;;;;5072591;28;20188;-73
2024/03/18 06:06:37;;;;;;;97.50;40.20;;;;;;;;;;5069382;28;20260;-73
2024/03/18 06:09:04;;;;;;;102.10;39.50;;;;;;;;;;5074108;28;20334;-73
2024/03/18 06:11:30;;;;;;;100.55;39.95;;;;;;;;;;5067637;28;20676;-73
2024/03/18 06:13:55;;;;;;;96.38;39.05;;;;;;;;;;5066558;28;20212;-73
2024/03/18 06:16:21;;;;;;;82.70;39.05;;;;;;;;;;5064451;28;20971;-73
2024/03/18 06:18:49;;;;;;;91.03;39.95;;;;;;;;;;5055992;28;20810;-73
2024/03/18 06:21:17;;;;;;;99.07;39.90;;;;;;;;;;5058427;28;20200;-73
2024/03/18 06:23:50;;;;;;;93.85;39.22;;;;;;;;;;5067631;28;20397;-73
2024/03/18 06:26:19;;;;;;;94.30;39.15;;;;;;;;;;5065325;28;20189;-72
2024/03/18 06:28:46;;;;;;;96.65;40.67;;;;;;;;;;5057860;28;20276;-72
2024/03/18 06:31:12;;;;;;;105.43;39.75;;;;;;;;;;5054093;28;20231;-72
2024/03/18 06:33:38;;;;;;;98.80;41.85;;;;;;;;;;5061652;28;20211;-73
2024/03/18 06:36:09;;;;;;;99.90;40.97;;;;;;;;;;5063992;28;20228;-73
2024/03/18 06:38:35;;;;;;;93.85;39.30;;;;;;;;;;5066509;28;20301;-73
2024/03/18 06:41:01;;;;;;;81.40;38.40;;;;;;;;;;5066652;28;20246;-73
2024/03/18 06:43:26;;;;;;;93.07;40.42;;;;;;;;;;5063211;28;20935;-73
2024/03/18 06:45:52;;;;;;;98.78;40.80;;;;;;;;;;5062557;28;20204;-73
2024/03/18 06:48:17;;;;;;;92.38;40.10;;;;;;;;;;5064001;28;20195;-72
2024/03/18 06:50:43;;;;;;;99.25;41.25;;;;;;;;;;5063025;28;20208;-73
2024/03/18 06:53:08;;;;;;;91.68;40.40;;;;;;;;;;5054689;28;20536;-73
2024/03/18 06:55:40;;;;;;;88.63;40.80;;;;;;;;;;5051813;28;20637;-72
2024/03/18 06:58:05;;;;;;;95.75;42.30;;;;;;;;;;5066183;28;20193;-73
2024/03/18 07:00:31;;;;;;;87.40;37.28;;;;;;;;;;5059956;28;20189;-73
2024/03/18 07:02:57;;;;;;;112.25;44.08;;;;;;;;;;5065321;28;20210;-73
2024/03/18 07:05:23;;;;;;;89.75;41.53;;;;;;;;;;5064670;28;20188;-73
2024/03/18 07:07:50;;;;;;;88.03;40.75;;;;;;;;;;5064299;28;20193;-73
2024/03/18 07:10:16;;;;;;;94.18;40.30;;;;;;;;;;5065035;28;20220;-73
2024/03/18 07:12:43;;;;;;;90.03;40.22;;;;;;;;;;5061200;28;20188;-73
2024/03/18 07:15:13;;;;;;;85.75;40.38;;;;;;;;;;5066885;28;20268;-73
2024/03/18 07:17:39;;;;;;;97.10;40.28;;;;;;;;;;5065689;28;20196;-73
2024/03/18 07:20:06;;;;;;;81.88;38.85;;;;;;;;;;5060538;28;20758;-73
2024/03/18 07:22:33;;;;;;;85.70;39.80;;;;;;;;;;5051963;28;20216;-73
2024/03/18 07:24:59;;;;;;;85.18;38.20;;;;;;;;;;5065503;28;20185;-73
2024/03/18 07:27:25;;;;;;;79.00;37.55;;;;;;;;;;5061350;28;20276;-73
2024/03/18 07:29:53;;;;;;;85.28;39.72;;;;;;;;;;5064442;28;20315;-73
2024/03/18 07:32:18;;;;;;;112.97;40.45;;;;;;;;;;5065285;28;20185;-74
2024/03/18 07:34:44;;;;;;;92.47;41.17;;;;;;;;;;5063505;28;20228;-74
2024/03/18 07:37:09;;;;;;;97.68;40.30;;;;;;;;;;5062865;28;20589;-73
2024/03/18 07:39:35;;;;;;;92.20;40.72;;;;;;;;;;5066823;28;20193;-73
2024/03/18 07:42:00;;;;;;;86.43;39.83;;;;;;;;;;5066465;28;20201;-73
2024/03/18 07:44:26;;;;;;;93.20;38.72;;;;;;;;;;5067486;28;20674;-73
2024/03/18 07:46:51;;;;;;;86.00;38.55;;;;;;;;;;5065549;28;20185;-74
2024/03/18 07:49:16;;;;;;;76.50;37.65;;;;;;;;;;5051674;28;20603;-73
2024/03/18 07:51:42;;;;;;;75.18;37.30;;;;;;;;;;5061966;28;20189;-74
2024/03/18 07:54:07;;;;;;;83.18;37.22;;;;;;;;;;5056015;28;20216;-73
2024/03/18 07:56:33;;;;;;;79.68;34.90;;;;;;;;;;5056335;28;20201;-73
2024/03/18 07:58:58;;;;;;;69.20;35.38;;;;;;;;;;5057363;28;20235;-73
2024/03/18 08:01:25;;;;;;;68.30;35.83;;;;;;;;;;5059326;28;20199;-74
2024/03/18 08:03:53;;;;;;;66.90;33.30;;;;;;;;;;5062510;28;20208;-73
2024/03/18 08:06:19;;;;;;;57.28;32.35;;;;;;;;;;5058519;28;20216;-73
2024/03/18 08:08:44;;;;;;;66.35;34.53;;;;;;;;;;5069113;28;20402;-74
2024/03/18 08:11:10;;;;;;;72.97;35.53;;;;;;;;;;5043844;28;20211;-73
2024/03/18 08:13:36;;;;;;;59.92;33.80;;;;;;;;;;5063208;28;20573;-74
2024/03/18 08:16:01;;;;;;;65.95;32.92;;;;;;;;;;5068652;28;20617;-73
2024/03/18 08:18:27;;;;;;;49.92;31.60;;;;;;;;;;5073108;28;20675;-73
2024/03/18 08:20:53;;;;;;;50.53;29.75;;;;;;;;;;5065607;28;20196;-73
2024/03/18 08:23:18;;;;;;;54.70;29.85;;;;;;;;;;5070610;28;20265;-73
2024/03/18 08:25:44;;;;;;;52.25;29.92;;;;;;;;;;5070512;28;20744;-74
2024/03/18 08:28:09;;;;;;;47.45;30.35;;;;;;;;;;5060369;28;20201;-73
2024/03/18 08:30:35;;;;;;;49.00;28.65;;;;;;;;;;5068916;28;20188;-74
2024/03/18 08:33:00;;;;;;;46.03;27.55;;;;;;;;;;5050947;28;20299;-73
2024/03/18 08:35:26;;;;;;;46.60;27.20;;;;;;;;;;5070803;28;20254;-74
2024/03/18 08:37:51;;;;;;;42.90;26.95;;;;;;;;;;5069872;28;20196;-73
2024/03/18 08:40:17;;;;;;;41.38;26.50;;;;;;;;;;5070336;28;20626;-73
2024/03/18 08:42:42;;;;;;;39.97;25.75;;;;;;;;;;5078023;28;20664;-73
2024/03/18 08:45:09;;;;;;;41.40;25.23;;;;;;;;;;5065955;28;20193;-73
2024/03/18 08:47:34;;;;;;;41.20;25.67;;;;;;;;;;5057991;28;20197;-73
2024/03/18 08:50:00;;;;;;;41.47;26.33;;;;;;;;;;5070256;28;20303;-73
2024/03/18 08:52:26;;;;;;;42.53;25.52;;;;;;;;;;5056730;28;20185;-73
2024/03/18 08:54:51;;;;;;;41.20;25.70;;;;;;;;;;5058267;28;20233;-73
2024/03/18 08:57:17;;;;;;;42.22;26.10;;;;;;;;;;5070213;28;20531;-73
2024/03/18 08:59:42;;;;;;;37.38;24.67;;;;;;;;;;5087425;28;20193;-73
2024/03/18 09:02:10;;;;;;;40.15;26.17;;;;;;;;;;5070050;28;20193;-72
2024/03/18 09:04:36;;;;;;;37.28;24.60;;;;;;;;;;5071613;28;20196;-73
2024/03/18 09:07:01;;;;;;;35.08;24.67;;;;;;;;;;5071837;28;20195;-72
2024/03/18 09:09:28;;;;;;;33.17;24.48;;;;;;;;;;5056716;28;20234;-72
2024/03/18 09:11:53;;;;;;;35.20;23.95;;;;;;;;;;5072703;28;20492;-72
2024/03/18 09:14:19;;;;;;;35.90;23.83;;;;;;;;;;5070054;28;20213;-72
2024/03/18 09:16:45;;;;;;;35.05;23.13;;;;;;;;;;5071766;28;20176;-72
2024/03/18 09:19:10;;;;;;;32.25;22.52;;;;;;;;;;5067655;28;20213;-73
2024/03/18 09:21:36;;;;;;;33.33;23.05;;;;;;;;;;5052222;28;20706;-73
2024/03/18 09:24:02;;;;;;;31.42;22.45;;;;;;;;;;5066105;28;20204;-72
2024/03/18 09:26:28;;;;;;;32.88;22.25;;;;;;;;;;5067389;28;20219;-72
2024/03/18 09:28:53;;;;;;;34.88;22.35;;;;;;;;;;5058511;28;20263;-72
2024/03/18 09:31:18;;;;;;;36.45;21.33;;;;;;;;;;5062593;28;20741;-72
2024/03/18 09:33:44;;;;;;;31.30;21.88;;;;;;;;;;5063589;28;20927;-72
2024/03/18 09:36:09;;;;;;;30.05;20.67;;;;;;;;;;5050558;28;20230;-73
2024/03/18 09:38:35;;;;;;;31.63;22.15;;;;;;;;;;5049181;28;20280;-72
2024/03/18 09:41:05;;;;;;;29.15;19.85;;;;;;;;;;5067520;28;20672;-72
2024/03/18 09:43:34;;;;;;;30.95;20.08;;;;;;;;;;5056460;28;20248;-72
2024/03/18 09:46:04;;;;;;;30.73;20.17;;;;;;;;;;5071305;28;20216;-73
2024/03/18 09:48:33;;;;;;;26.92;18.88;;;;;;;;;;5081242;28;20192;-73
2024/03/18 09:50:59;;;;;;;26.20;17.83;;;;;;;;;;5062689;28;20193;-72
2024/03/18 09:53:27;;;;;;;32.83;18.63;;;;;;;;;;5064617;28;20204;-72
2024/03/18 09:55:53;;;;;;;26.35;18.58;;;;;;;;;;5071046;28;20177;-72
2024/03/18 09:58:19;;;;;;;29.75;19.17;;;;;;;;;;5070945;28;20199;-71
2024/03/18 10:00:45;;;;;;;26.15;18.50;;;;;;;;;;5055552;28;20263;-72
2024/03/18 10:03:18;;;;;;;25.38;16.52;;;;;;;;;;5069735;28;20675;-72
2024/03/18 10:05:45;;;;;;;27.30;18.10;;;;;;;;;;5070211;28;20665;-72
2024/03/18 10:08:15;;;;;;;31.33;19.02;;;;;;;;;;5071170;28;20624;-72
2024/03/18 10:10:44;;;;;;;26.95;18.13;;;;;;;;;;5069484;28;20197;-72
2024/03/18 10:13:10;;;;;;;30.80;18.63;;;;;;;;;;5058886;28;20620;-72
2024/03/18 10:15:38;;;;;;;28.40;18.08;;;;;;;;;;5068300;28;20196;-72
2024/03/18 10:18:09;;;;;;;26.35;18.00;;;;;;;;;;5072748;28;20176;-72
2024/03/18 10:20:37;;;;;;;29.25;17.73;;;;;;;;;;5070422;28;20184;-72
2024/03/18 10:23:05;;;;;;;28.73;17.90;;;;;;;;;;5064169;28;20185;-72
2024/03/18 10:25:31;;;;;;;27.17;18.52;;;;;;;;;;5061775;28;20184;-72
2024/03/18 10:27:56;;;;;;;30.05;17.98;;;;;;;;;;5063686;28;20185;-72
2024/03/18 10:30:22;;;;;;;22.90;17.23;;;;;;;;;;5069143;28;20192;-73
2024/03/18 10:32:52;;;;;;;26.40;17.63;;;;;;;;;;5058683;28;20181;-72
2024/03/18 10:35:26;;;;;;;30.50;17.80;;;;;;;;;;5068172;28;20215;-72
2024/03/18 10:37:57;;;;;;;28.67;18.50;;;;;;;;;;5061032;28;20220;-72
2024/03/18 10:40:34;;;;;;;27.33;17.75;;;;;;;;;;5067576;28;20216;-72
2024/03/18 10:43:10;;;;;;;27.80;17.73;;;;;;;;;;5063471;28;20267;-72
2024/03/18 10:45:39;;;;;;;26.33;18.15;;;;;;;;;;5068187;28;20548;-72
2024/03/18 10:48:06;;;;;;;26.80;17.95;;;;;;;;;;5059382;28;20671;-72
2024/03/18 10:50:33;;;;;;;29.38;18.52;;;;;;;;;;5062948;28;20185;-72
2024/03/18 10:52:59;;;;;;;28.58;19.02;;;;;;;;;;5058920;28;20273;-72
2024/03/18 10:55:28;;;;;;;34.72;20.15;;;;;;;;;;5067838;28;20656;-73
2024/03/18 10:57:55;;;;;;;31.65;19.42;;;;;;;;;;5082225;28;20242;-72
2024/03/18 11:00:22;;;;;;;28.95;18.30;;;;;;;;;;5067980;28;20188;-72
2024/03/18 11:02:59;;;;;;;29.45;19.05;;;;;;;;;;5066188;28;20184;-72
2024/03/18 11:05:30;;;;;;;29.02;18.15;;;;;;;;;;5069128;28;20196;-72
2024/03/18 11:07:58;;;;;;;31.38;18.48;;;;;;;;;;5068630;28;20191;-72
2024/03/18 11:10:27;;;;;;;28.75;18.60;;;;;;;;;;5070274;28;20200;-72
2024/03/18 11:12:52;;;;;;;28.27;17.60;;;;;;;;;;5069068;28;20310;-72
2024/03/18 11:15:18;;;;;;;26.75;18.08;;;;;;;;;;5069563;28;20291;-72
2024/03/18 11:17:50;;;;;;;25.10;16.42;;;;;;;;;;5064128;28;20617;-72
2024/03/18 11:20:20;;;;;;;25.50;16.42;;;;;;;;;;5049271;28;20379;-72
2024/03/18 11:22:58;;;;;;;24.75;17.88;;;;;;;;;;5063391;28;20181;-72
2024/03/18 11:25:26;;;;;;;30.13;18.42;;;;;;;;;;5066435;28;20263;-71
2024/03/18 11:27:56;;;;;;;23.52;17.30;;;;;;;;;;5069136;28;20196;-72
2024/03/18 11:30:34;;;;;;;27.10;18.70;;;;;;;;;;5031386;28;20182;-71
2024/03/18 11:33:09;;;;;;;27.60;16.95;;;;;;;;;;5062102;28;20204;-72
2024/03/18 11:35:37;;;;;;;27.00;18.67;;;;;;;;;;5069419;28;20227;-72
2024/03/18 11:38:04;;;;;;;24.77;17.40;;;;;;;;;;5069542;28;20189;-72
2024/03/18 11:40:36;;;;;;;24.27;16.45;;;;;;;;;;5064751;28;20588;-72
2024/03/18 11:43:02;;;;;;;27.02;17.55;;;;;;;;;;5069308;28;20181;-72
2024/03/18 11:45:28;;;;;;;26.25;16.23;;;;;;;;;;5064881;28;20188;-72
2024/03/18 11:48:05;;;;;;;21.92;16.58;;;;;;;;;;5059258;28;20263;-72
2024/03/18 11:50:35;;;;;;;26.65;16.20;;;;;;;;;;5067328;28;20604;-71
2024/03/18 11:53:04;;;;;;;21.98;15.52;;;;;;;;;;5069880;28;20240;-72
2024/03/18 11:55:43;;;;;;;21.17;15.35;;;;;;;;;;5054305;28;20200;-72
2024/03/18 11:58:12;;;;;;;23.50;15.75;;;;;;;;;;5068743;28;20298;-72
2024/03/18 12:00:38;;;;;;;21.75;14.93;;;;;;;;;;5067753;28;20209;-72
2024/03/18 12:03:10;;;;;;;22.88;14.98;;;;;;;;;;5069443;28;20250;-72
2024/03/18 12:05:37;;;;;;;24.52;15.75;;;;;;;;;;5052613;28;20599;-72
2024/03/18 12:08:07;;;;;;;21.92;14.75;;;;;;;;;;5069623;28;20242;-72
2024/03/18 12:10:33;;;;;;;22.63;14.48;;;;;;;;;;5066939;28;20185;-72
2024/03/18 12:13:00;;;;;;;21.40;14.50;;;;;;;;;;5067917;28;20200;-72
2024/03/18 12:15:27;;;;;;;19.73;13.38;;;;;;;;;;5069616;28;20675;-72
2024/03/18 12:17:52;;;;;;;20.15;13.57;;;;;;;;;;5053071;28;20639;-72
2024/03/18 12:20:30;;;;;;;22.27;14.00;;;;;;;;;;5063899;28;20256;-73
2024/03/18 12:23:05;;;;;;;22.73;13.43;;;;;;;;;;5068399;28;20189;-72
2024/03/18 12:31:09;;;;;;;23.23;15.00;;;;;;;;;;5067719;28;20225;-72
2024/03/18 12:33:35;;;;;;;21.92;15.07;;;;;;;;;;5063126;28;20570;-72
2024/03/18 12:36:06;;;;;;;22.52;15.23;;;;;;;;;;5058877;28;20308;-72
2024/03/18 12:38:39;;;;;;;23.90;15.70;;;;;;;;;;5066234;28;20212;-72
2024/03/18 12:41:05;;;;;;;28.52;15.05;;;;;;;;;;5068428;28;20188;-72
2024/03/18 12:43:32;;;;;;;27.40;14.55;;;;;;;;;;5068312;28;20182;-72
2024/03/18 12:46:00;;;;;;;21.25;14.07;;;;;;;;;;5067321;28;20717;-72
2024/03/18 12:48:28;;;;;;;25.08;15.20;;;;;;;;;;5064472;28;20225;-71
2024/03/18 12:50:55;;;;;;;22.88;14.35;;;;;;;;;;5070239;28;20180;-72
2024/03/18 12:53:21;;;;;;;25.30;15.10;;;;;;;;;;5069234;28;20254;-71
2024/03/18 12:55:46;;;;;;;25.27;13.95;;;;;;;;;;5068335;28;20181;-72
2024/03/18 12:58:12;;;;;;;20.90;12.98;;;;;;;;;;5069183;28;20250;-71
2024/03/18 13:00:37;;;;;;;23.30;13.18;;;;;;;;;;5068888;28;20282;-72
2024/03/18 13:03:04;;;;;;;20.15;12.82;;;;;;;;;;5072406;28;20255;-72
2024/03/18 13:05:32;;;;;;;20.33;13.32;;;;;;;;;;5071814;28;20227;-71
2024/03/18 13:07:58;;;;;;;19.58;12.38;;;;;;;;;;5072189;28;20212;-71
2024/03/18 13:10:24;;;;;;;19.35;12.18;;;;;;;;;;5065596;28;20189;-71
2024/03/18 13:12:49;;;;;;;18.85;11.52;;;;;;;;;;5071845;28;20188;-71
2024/03/18 13:15:15;;;;;;;17.83;10.73;;;;;;;;;;5061473;28;20189;-72
2024/03/18 13:17:40;;;;;;;24.27;11.88;;;;;;;;;;5068443;28;20211;-72
2024/03/18 13:20:09;;;;;;;21.30;11.73;;;;;;;;;;5060351;28;20213;-72
2024/03/18 13:22:35;;;;;;;17.08;11.13;;;;;;;;;;5066544;28;20575;-72
2024/03/18 13:25:00;;;;;;;19.00;11.32;;;;;;;;;;5070129;28;20214;-72
2024/03/18 13:27:26;;;;;;;17.60;9.23;;;;;;;;;;5055096;28;20231;-72
2024/03/18 13:29:52;;;;;;;19.10;10.18;;;;;;;;;;5065473;28;20257;-72
2024/03/18 13:32:21;;;;;;;15.48;10.45;;;;;;;;;;5058406;28;20334;-72
2024/03/18 13:34:48;;;;;;;16.00;10.02;;;;;;;;;;5068590;28;20247;-71
2024/03/18 13:37:14;;;;;;;14.52;9.32;;;;;;;;;;5064527;28;20225;-71
2024/03/18 13:39:39;;;;;;;14.18;9.13;;;;;;;;;;5052223;28;20212;-72
2024/03/18 13:42:15;;;;;;;16.75;10.10;;;;;;;;;;5069379;28;20734;-72
2024/03/18 13:44:45;;;;;;;17.02;11.38;;;;;;;;;;5071985;28;20554;-72
2024/03/18 13:47:13;;;;;;;17.65;10.32;;;;;;;;;;5070820;28;20264;-72
2024/03/18 13:49:40;;;;;;;15.65;9.07;;;;;;;;;;5069803;28;20224;-72
2024/03/18 13:52:06;;;;;;;16.33;9.82;;;;;;;;;;5069197;28;20589;-72
2024/03/18 13:54:31;;;;;;;14.80;9.15;;;;;;;;;;5070019;28;20209;-72
2024/03/18 13:57:03;;;;;;;15.13;8.88;;;;;;;;;;5070748;28;20199;-71
2024/03/18 13:59:34;;;;;;;13.95;8.75;;;;;;;;;;5069254;28;20189;-72
2024/03/18 14:02:00;;;;;;;15.15;8.43;;;;;;;;;;5062323;28;20519;-71
2024/03/18 14:04:31;;;;;;;18.95;9.48;;;;;;;;;;5058439;28;20254;-72
2024/03/18 14:06:58;;;;;;;18.85;9.70;;;;;;;;;;5070106;28;20191;-72
2024/03/18 14:09:23;;;;;;;18.15;9.88;;;;;;;;;;5067555;28;20269;-72
2024/03/18 14:11:49;;;;;;;16.02;9.25;;;;;;;;;;5061764;28;20272;-73
2024/03/18 14:14:14;;;;;;;15.05;9.02;;;;;;;;;;5061707;28;20208;-72
2024/03/18 14:16:40;;;;;;;14.40;8.75;;;;;;;;;;5060706;28;20193;-73
2024/03/18 14:19:05;;;;;;;17.08;9.45;;;;;;;;;;5056455;28;20221;-72
2024/03/18 14:21:30;;;;;;;17.30;9.27;;;;;;;;;;5059126;28;20190;-72